createdAt,value
2023-06-10T00:00:02.434Z,6.50
2023-06-10T00:02:40.811Z,6.40
2023-06-10T00:05:10.095Z,6.65
2023-06-10T00:10:07.697Z,6.57
2023-06-10T00:12:38.320Z,7.07
2023-06-10T00:15:07.185Z,7.28
2023-06-10T00:17:35.051Z,7.10
2023-06-10T00:20:06.127Z,7.45
2023-06-10T00:22:33.594Z,8.07
2023-06-10T00:25:00.994Z,7.60
2023-06-10T00:27:32.517Z,7.72
2023-06-10T00:30:02.187Z,8.50
2023-06-10T00:32:30.125Z,7.82
2023-06-10T00:34:57.441Z,8.18
2023-06-10T00:37:25.306Z,8.40
2023-06-10T00:39:53.141Z,8.63
2023-06-10T00:42:25.132Z,8.55
2023-06-10T00:44:52.853Z,8.32
2023-06-10T00:47:23.736Z,8.48
2023-06-10T00:49:52.109Z,7.35
2023-06-10T00:52:23.860Z,7.43
2023-06-10T00:54:51.397Z,7.45
2023-06-10T00:57:18.875Z,6.93
2023-06-10T00:59:49.629Z,7.28
2023-06-10T01:02:17.851Z,6.70
2023-06-10T01:04:45.332Z,7.28
2023-06-10T01:07:32.671Z,6.68
2023-06-10T01:10:42.110Z,6.78
2023-06-10T01:13:15.752Z,6.60
2023-06-10T01:15:43.966Z,6.38
2023-06-10T01:18:16.557Z,5.85
2023-06-10T01:20:45.241Z,5.60
2023-06-10T01:23:12.963Z,6.75
2023-06-10T01:25:45.502Z,6.30
2023-06-10T01:28:15.718Z,5.68
2023-06-10T01:31:09.313Z,6.90
2023-06-10T01:33:41.615Z,6.57
2023-06-10T01:36:09.749Z,6.28
2023-06-10T01:38:43.598Z,7.13
2023-06-10T01:41:13.559Z,5.63
2023-06-10T01:43:43.774Z,5.70
2023-06-10T01:46:12.012Z,5.93
2023-06-10T01:48:39.730Z,6.20
2023-06-10T01:51:07.439Z,6.40
2023-06-10T01:53:37.195Z,8.02
2023-06-10T01:56:06.397Z,5.75
2023-06-10T01:58:33.699Z,5.40
2023-06-10T02:01:01.115Z,5.97
2023-06-10T02:03:28.670Z,5.85
2023-06-10T02:05:57.002Z,5.90
2023-06-10T02:08:24.344Z,5.78
2023-06-10T02:10:51.709Z,5.70
2023-06-10T02:13:19.241Z,5.38
2023-06-10T02:15:47.159Z,6.05
2023-06-10T02:18:14.637Z,5.30
2023-06-10T02:20:42.130Z,5.30
2023-06-10T02:23:09.375Z,5.47
2023-06-10T02:25:37.498Z,6.25
2023-06-10T02:28:04.984Z,6.22
2023-06-10T02:30:32.692Z,5.75
2023-06-10T02:33:00.418Z,5.80
2023-06-10T02:35:28.630Z,6.10
2023-06-10T02:37:56.689Z,5.93
2023-06-10T02:40:24.284Z,5.55
2023-06-10T02:42:51.531Z,6.10
2023-06-10T02:45:18.845Z,5.38
2023-06-10T02:47:46.805Z,6.28
2023-06-10T02:50:14.700Z,5.80
2023-06-10T02:52:58.224Z,5.30
2023-06-10T02:55:27.734Z,5.65
2023-06-10T02:58:01.717Z,5.88
2023-06-10T03:00:30.736Z,5.72
2023-06-10T03:02:58.884Z,5.80
2023-06-10T03:05:32.316Z,6.22
2023-06-10T03:08:02.950Z,5.63
2023-06-10T03:10:34.112Z,6.05
2023-06-10T03:13:02.515Z,5.63
2023-06-10T03:15:34.059Z,5.43
2023-06-10T03:18:06.281Z,5.20
2023-06-10T03:20:38.781Z,6.38
2023-06-10T03:23:08.324Z,5.68
2023-06-10T03:25:36.360Z,6.75
2023-06-10T03:28:04.676Z,6.18
2023-06-10T03:30:32.885Z,7.35
2023-06-10T03:33:00.843Z,5.53
2023-06-10T03:35:31.043Z,5.60
2023-06-10T03:37:58.811Z,5.40
2023-06-10T03:40:26.079Z,5.90
2023-06-10T03:42:53.424Z,5.93
2023-06-10T03:45:21.510Z,5.18
2023-06-10T03:47:49.626Z,5.30
2023-06-10T03:50:20.465Z,5.40
2023-06-10T03:52:48.448Z,5.78
2023-06-10T03:55:17.888Z,5.45
2023-06-10T03:57:47.899Z,5.90
2023-06-10T04:00:16.563Z,5.47
2023-06-10T04:02:49.081Z,7.47
2023-06-10T04:05:31.483Z,8.38
2023-06-10T04:07:59.268Z,8.25
2023-06-10T04:10:26.886Z,9.45
2023-06-10T04:12:55.369Z,6.65
2023-06-10T04:15:25.010Z,6.57
2023-06-10T04:17:52.458Z,6.03
2023-06-10T04:20:23.305Z,6.18
2023-06-10T04:22:51.205Z,5.93
2023-06-10T04:25:18.647Z,6.07
2023-06-10T04:27:45.914Z,5.70
2023-06-10T04:30:14.149Z,5.60
2023-06-10T04:32:42.231Z,5.82
2023-06-10T04:35:16.323Z,5.63
2023-06-10T04:37:44.076Z,4.82
2023-06-10T04:40:12.278Z,4.80
2023-06-10T04:42:39.935Z,5.72
2023-06-10T04:45:09.682Z,5.95
2023-06-10T04:47:38.322Z,5.72
2023-06-10T04:50:07.127Z,5.50
2023-06-10T04:52:35.222Z,5.22
2023-06-10T04:55:03.190Z,5.13
2023-06-10T04:57:30.726Z,6.25
2023-06-10T05:00:01.348Z,6.03
2023-06-10T05:02:28.871Z,5.63
2023-06-10T05:04:57.724Z,5.78
2023-06-10T05:07:25.239Z,5.63
2023-06-10T05:09:52.652Z,5.32
2023-06-10T05:12:19.948Z,5.57
2023-06-10T05:14:47.396Z,6.20
2023-06-10T05:17:14.951Z,5.68
2023-06-10T05:19:44.328Z,5.85
2023-06-10T05:22:12.243Z,5.97
2023-06-10T05:24:41.288Z,5.60
2023-06-10T05:27:08.584Z,5.15
2023-06-10T05:29:35.999Z,5.82
2023-06-10T05:32:04.632Z,5.53
2023-06-10T05:34:32.239Z,6.00
2023-06-10T05:36:59.652Z,6.40
2023-06-10T05:39:27.321Z,5.97
2023-06-10T05:41:54.686Z,5.95
2023-06-10T05:44:22.204Z,6.10
2023-06-10T05:46:49.462Z,6.45
2023-06-10T05:49:16.704Z,6.53
2023-06-10T05:51:44.137Z,5.80
2023-06-10T05:54:12.246Z,5.68
2023-06-10T05:56:39.725Z,5.40
2023-06-10T05:59:07.473Z,9.48
2023-06-10T06:01:35.360Z,7.82
2023-06-10T06:04:02.805Z,8.18
2023-06-10T06:06:30.229Z,7.10
2023-06-10T06:08:57.684Z,6.60
2023-06-10T06:11:26.930Z,6.50
2023-06-10T06:13:55.359Z,7.07
2023-06-10T06:16:22.690Z,6.35
2023-06-10T06:18:50.068Z,6.35
2023-06-10T06:21:17.351Z,5.93
2023-06-10T06:23:45.840Z,6.18
2023-06-10T06:26:13.168Z,5.53
2023-06-10T06:28:41.100Z,6.35
2023-06-10T06:31:08.556Z,5.93
2023-06-10T06:33:36.117Z,5.35
2023-06-10T06:36:04.448Z,5.03
2023-06-10T06:38:31.926Z,5.38
2023-06-10T06:41:04.310Z,5.60
2023-06-10T06:43:31.763Z,4.82
2023-06-10T06:46:17.582Z,5.60
2023-06-10T06:48:45.603Z,6.38
2023-06-10T06:51:13.404Z,5.57
2023-06-10T06:53:45.524Z,4.82
2023-06-10T06:56:14.119Z,4.40
2023-06-10T06:58:42.640Z,4.80
2023-06-10T07:01:09.957Z,4.28
2023-06-10T07:03:40.242Z,4.03
2023-06-10T07:06:11.080Z,4.70
2023-06-10T07:08:40.118Z,4.40
2023-06-10T07:11:07.416Z,4.70
2023-06-10T07:13:35.226Z,4.85
2023-06-10T07:16:02.930Z,4.45
2023-06-10T07:18:30.791Z,4.22
2023-06-10T07:20:58.251Z,4.47
2023-06-10T07:23:25.912Z,4.32
2023-06-10T07:25:53.259Z,4.32
2023-06-10T07:28:20.547Z,4.45
2023-06-10T07:30:48.256Z,4.35
2023-06-10T07:33:15.813Z,3.95
2023-06-10T07:35:44.355Z,3.93
2023-06-10T07:38:12.467Z,5.20
2023-06-10T07:40:40.036Z,4.32
2023-06-10T07:43:07.410Z,4.10
2023-06-10T07:45:35.174Z,4.25
2023-06-10T07:48:02.469Z,4.47
2023-06-10T07:50:29.880Z,4.13
2023-06-10T07:52:57.201Z,4.13
2023-06-10T07:55:27.064Z,4.05
2023-06-10T07:57:55.162Z,3.55
2023-06-10T08:00:23.171Z,3.95
2023-06-10T08:02:51.848Z,3.50
2023-06-10T08:05:19.592Z,3.83
2023-06-10T08:07:47.097Z,3.47
2023-06-10T08:10:15.014Z,3.92
2023-06-10T08:12:42.396Z,5.28
2023-06-10T08:15:10.592Z,3.97
2023-06-10T08:17:39.634Z,3.45
2023-06-10T08:20:08.118Z,3.30
2023-06-10T08:22:36.001Z,3.20
2023-06-10T08:25:03.734Z,2.90
2023-06-10T08:27:31.368Z,3.17
2023-06-10T08:30:00.609Z,3.15
2023-06-10T08:32:28.202Z,3.17
2023-06-10T08:34:56.942Z,3.08
2023-06-10T08:37:25.216Z,2.80
2023-06-10T08:39:52.559Z,2.90
2023-06-10T08:42:29.341Z,3.30
2023-06-10T08:44:57.536Z,4.05
2023-06-10T08:47:26.484Z,3.22
2023-06-10T08:49:57.588Z,3.33
2023-06-10T08:52:28.943Z,3.65
2023-06-10T08:55:05.776Z,3.90
2023-06-10T08:57:33.467Z,3.45
2023-06-10T09:00:01.231Z,4.65
2023-06-10T09:02:28.794Z,3.05
2023-06-10T09:04:58.942Z,3.60
2023-06-10T09:07:27.122Z,3.05
2023-06-10T09:09:55.991Z,2.85
2023-06-10T09:12:23.358Z,2.90
2023-06-10T09:14:51.009Z,3.53
2023-06-10T09:17:19.024Z,3.13
2023-06-10T09:19:48.511Z,2.80
2023-06-10T09:22:16.569Z,3.28
2023-06-10T09:24:43.895Z,2.83
2023-06-10T09:27:11.444Z,2.95
2023-06-10T09:29:55.812Z,3.35
2023-06-10T09:32:23.290Z,2.97
2023-06-10T09:34:54.250Z,2.90
2023-06-10T09:37:23.168Z,2.35
2023-06-10T09:40:11.617Z,2.58
2023-06-10T09:42:40.533Z,2.70
2023-06-10T09:45:08.698Z,2.83
2023-06-10T09:47:36.506Z,2.22
2023-06-10T09:50:04.841Z,2.55
2023-06-10T09:52:32.382Z,3.15
2023-06-10T09:55:03.789Z,3.45
2023-06-10T09:57:35.226Z,2.58
2023-06-10T10:00:23.248Z,4.53
2023-06-10T10:02:52.959Z,2.90
2023-06-10T10:05:23.156Z,2.58
2023-06-10T10:07:51.411Z,2.78
2023-06-10T10:10:21.284Z,3.00
2023-06-10T10:12:52.168Z,2.50
2023-06-10T10:15:21.088Z,2.67
2023-06-10T10:17:59.603Z,3.30
2023-06-10T10:20:31.106Z,3.00
2023-06-10T10:23:00.495Z,2.63
2023-06-10T10:28:09.652Z,2.60
2023-06-10T10:30:58.610Z,2.63
2023-06-10T10:33:36.720Z,3.47
2023-06-10T10:36:05.396Z,2.60
2023-06-10T10:41:02.276Z,3.58
2023-06-10T10:43:34.008Z,2.80
2023-06-10T10:46:02.761Z,2.80
2023-06-10T10:48:39.267Z,3.58
2023-06-10T10:51:06.683Z,3.30
2023-06-10T10:53:34.639Z,3.17
2023-06-10T10:56:16.432Z,3.60
2023-06-10T10:59:04.728Z,4.07
2023-06-10T11:01:43.628Z,3.63
2023-06-10T11:04:11.490Z,3.10
2023-06-10T11:06:39.585Z,3.10
2023-06-10T11:09:29.871Z,3.03
2023-06-10T11:12:01.150Z,3.15
2023-06-10T11:14:30.396Z,3.00
2023-06-10T11:16:59.412Z,2.97
2023-06-10T11:22:03.224Z,3.30
2023-06-10T11:24:31.243Z,3.35
2023-06-10T11:27:18.600Z,3.00
2023-06-10T11:30:04.680Z,3.10
2023-06-10T11:32:35.944Z,3.30
2023-06-10T11:35:09.343Z,3.00
2023-06-10T11:37:37.592Z,3.03
2023-06-10T11:40:05.607Z,3.15
2023-06-10T11:42:46.160Z,3.00
2023-06-10T11:45:19.959Z,2.85
2023-06-10T11:48:00.662Z,2.85
2023-06-10T11:50:34.937Z,3.00
2023-06-10T11:53:02.334Z,2.67
2023-06-10T11:56:02.141Z,3.00
2023-06-10T11:58:29.998Z,3.08
2023-06-10T12:01:02.602Z,2.83
2023-06-10T12:03:41.195Z,2.88
2023-06-10T12:06:08.889Z,2.80
2023-06-10T12:08:43.990Z,2.72
2023-06-10T12:11:11.999Z,2.80
2023-06-10T12:13:49.700Z,3.13
2023-06-10T12:16:17.918Z,3.13
2023-06-10T12:18:47.084Z,2.70
2023-06-10T12:21:22.223Z,3.15
2023-06-10T12:24:02.622Z,2.80
2023-06-10T12:26:37.363Z,2.90
2023-06-10T12:29:22.157Z,3.00
2023-06-10T12:32:04.497Z,3.03
2023-06-10T12:34:41.621Z,3.40
2023-06-10T12:37:14.891Z,2.65
2023-06-10T12:39:43.912Z,2.92
2023-06-10T12:42:11.627Z,2.80
2023-06-10T12:44:42.511Z,2.85
2023-06-10T12:47:11.226Z,3.00
2023-06-10T12:49:38.519Z,2.80
2023-06-10T12:52:06.769Z,3.08
2023-06-10T12:54:35.683Z,3.15
2023-06-10T12:57:03.813Z,3.22
2023-06-10T12:59:33.000Z,2.92
2023-06-10T13:02:00.361Z,2.95
2023-06-10T13:04:28.164Z,3.08
2023-06-10T13:06:55.964Z,2.85
2023-06-10T13:09:23.785Z,2.60
2023-06-10T13:11:51.593Z,2.80
2023-06-10T13:14:18.957Z,3.05
2023-06-10T13:16:46.532Z,3.10
2023-06-10T13:19:14.089Z,3.70
2023-06-10T13:21:41.730Z,2.80
2023-06-10T13:24:09.037Z,2.92
2023-06-10T13:26:37.616Z,2.85
2023-06-10T13:29:05.381Z,3.30
2023-06-10T13:31:33.704Z,2.95
2023-06-10T13:34:01.102Z,3.20
2023-06-10T13:36:28.490Z,2.83
2023-06-10T13:38:56.997Z,3.78
2023-06-10T13:41:24.589Z,3.33
2023-06-10T13:43:52.022Z,2.88
2023-06-10T13:46:19.706Z,3.00
2023-06-10T13:48:47.117Z,2.90
2023-06-10T13:51:14.638Z,3.72
2023-06-10T13:53:42.029Z,3.50
2023-06-10T13:56:10.476Z,3.55
2023-06-10T13:58:40.177Z,3.10
2023-06-10T14:01:07.454Z,3.25
2023-06-10T14:03:37.751Z,3.35
2023-06-10T14:06:05.544Z,3.20
2023-06-10T14:08:34.365Z,3.25
2023-06-10T14:11:01.924Z,3.10
2023-06-10T14:13:29.602Z,3.40
2023-06-10T14:15:57.423Z,2.75
2023-06-10T14:18:24.831Z,3.42
2023-06-10T14:20:52.250Z,2.72
2023-06-10T14:23:20.148Z,3.00
2023-06-10T14:25:49.698Z,4.00
2023-06-10T14:28:17.399Z,3.55
2023-06-10T14:30:44.919Z,3.17
2023-06-10T14:33:12.511Z,3.05
2023-06-10T14:35:40.129Z,3.20
2023-06-10T14:38:08.399Z,3.20
2023-06-10T14:40:36.272Z,3.50
2023-06-10T14:43:11.041Z,3.55
2023-06-10T14:45:39.525Z,3.00
2023-06-10T14:48:08.455Z,3.08
2023-06-10T14:50:41.638Z,3.43
2023-06-10T14:53:08.997Z,3.00
2023-06-10T14:55:36.884Z,3.40
2023-06-10T14:58:04.165Z,2.80
2023-06-10T15:00:31.752Z,3.67
2023-06-10T15:02:59.177Z,3.22
2023-06-10T15:05:26.450Z,3.30
2023-06-10T15:07:53.791Z,3.67
2023-06-10T15:10:24.003Z,3.40
2023-06-10T15:12:57.031Z,3.75
2023-06-10T15:15:26.224Z,3.42
2023-06-10T15:17:54.859Z,2.95
2023-06-10T15:20:23.664Z,2.90
2023-06-10T15:22:51.077Z,3.10
2023-06-10T15:25:29.863Z,2.35
2023-06-10T15:27:59.177Z,3.20
2023-06-10T15:30:26.939Z,3.00
2023-06-10T15:32:54.720Z,3.45
2023-06-10T15:35:23.052Z,3.60
2023-06-10T15:37:50.690Z,3.35
2023-06-10T15:40:18.046Z,2.90
2023-06-10T15:42:45.554Z,2.60
2023-06-10T15:45:13.214Z,3.70
2023-06-10T15:47:42.793Z,3.13
2023-06-10T15:50:11.397Z,2.88
2023-06-10T15:52:39.668Z,2.72
2023-06-10T15:55:07.237Z,3.05
2023-06-10T15:57:35.114Z,2.80
2023-06-10T16:00:02.578Z,3.00
2023-06-10T16:05:03.846Z,2.70
2023-06-10T16:07:31.516Z,2.83
2023-06-10T16:09:59.104Z,3.15
2023-06-10T16:12:26.814Z,2.58
2023-06-10T16:14:54.257Z,3.38
2023-06-10T16:17:22.258Z,3.00
2023-06-10T16:19:49.997Z,3.20
2023-06-10T16:22:17.324Z,3.45
2023-06-10T16:24:44.561Z,3.35
2023-06-10T16:27:12.030Z,3.00
2023-06-10T16:29:39.757Z,3.25
2023-06-10T16:32:07.601Z,3.03
2023-06-10T16:34:34.920Z,3.13
2023-06-10T16:37:03.095Z,2.85
2023-06-10T16:39:30.829Z,3.97
2023-06-10T16:41:58.120Z,5.35
2023-06-10T16:44:25.652Z,3.03
2023-06-10T16:46:52.988Z,3.20
2023-06-10T16:49:20.392Z,3.42
2023-06-10T16:51:48.026Z,2.90
2023-06-10T16:54:15.618Z,3.53
2023-06-10T16:56:42.879Z,2.65
2023-06-10T16:59:10.790Z,2.65
2023-06-10T17:01:38.436Z,2.67
2023-06-10T17:04:05.870Z,2.88
2023-06-10T17:06:33.387Z,2.65
2023-06-10T17:09:00.741Z,2.67
2023-06-10T17:11:28.329Z,2.65
2023-06-10T17:13:56.615Z,2.80
2023-06-10T17:16:24.073Z,2.75
2023-06-10T17:18:51.632Z,2.95
2023-06-10T17:21:18.929Z,2.92
2023-06-10T17:23:46.334Z,2.97
2023-06-10T17:26:13.748Z,3.00
2023-06-10T17:28:41.556Z,4.45
2023-06-10T17:31:08.888Z,3.90
2023-06-10T17:33:37.280Z,3.80
2023-06-10T17:36:05.315Z,4.38
2023-06-10T17:38:32.632Z,3.65
2023-06-10T17:41:02.444Z,3.33
2023-06-10T17:43:30.068Z,3.38
2023-06-10T17:45:59.097Z,3.30
2023-06-10T17:48:26.476Z,3.35
2023-06-10T17:50:53.952Z,4.32
2023-06-10T17:53:22.447Z,4.43
2023-06-10T17:55:49.772Z,4.28
2023-06-10T17:58:17.563Z,3.85
2023-06-10T18:00:45.085Z,3.50
2023-06-10T18:03:12.517Z,3.20
2023-06-10T18:05:39.952Z,4.40
2023-06-10T18:08:07.450Z,3.72
2023-06-10T18:10:38.012Z,4.15
2023-06-10T18:13:05.582Z,3.22
2023-06-10T18:15:35.248Z,3.72
2023-06-10T18:18:05.457Z,3.88
2023-06-10T18:20:32.847Z,3.38
2023-06-10T18:23:00.113Z,3.88
2023-06-10T18:25:27.511Z,3.50
2023-06-10T18:27:57.229Z,3.47
2023-06-10T18:30:25.741Z,4.40
2023-06-10T18:32:53.450Z,3.53
2023-06-10T18:35:22.520Z,3.83
2023-06-10T18:37:50.222Z,3.40
2023-06-10T18:40:19.128Z,4.38
2023-06-10T18:42:46.461Z,3.88
2023-06-10T18:45:14.215Z,4.30
2023-06-10T18:47:56.662Z,3.90
2023-06-10T18:50:25.031Z,5.28
2023-06-10T18:52:52.488Z,5.97
2023-06-10T18:55:20.347Z,6.88
2023-06-10T18:57:47.687Z,8.13
2023-06-10T19:00:15.692Z,9.50
2023-06-10T19:05:25.778Z,10.45
2023-06-10T19:07:53.503Z,10.18
2023-06-10T19:10:22.213Z,11.80
2023-06-10T19:12:49.650Z,16.25
2023-06-10T19:15:17.060Z,11.38
2023-06-10T19:17:45.306Z,15.70
2023-06-10T19:20:13.896Z,10.10
2023-06-10T19:22:41.667Z,9.40
2023-06-10T19:25:10.049Z,10.05
2023-06-10T19:27:37.685Z,8.93
2023-06-10T19:30:05.593Z,9.35
2023-06-10T19:32:33.657Z,8.38
2023-06-10T19:35:02.448Z,9.48
2023-06-10T19:37:30.353Z,10.05
2023-06-10T19:39:57.790Z,9.70
2023-06-10T19:42:25.169Z,22.15
2023-06-10T19:44:52.436Z,11.43
2023-06-10T19:47:19.913Z,13.40
2023-06-10T19:49:48.321Z,7.70
2023-06-10T19:52:18.263Z,8.20
2023-06-10T19:54:45.589Z,9.10
2023-06-10T19:57:14.348Z,8.63
2023-06-10T19:59:41.867Z,8.63
2023-06-10T20:02:09.390Z,8.73
2023-06-10T20:04:36.777Z,9.77
2023-06-10T20:07:04.187Z,11.85
2023-06-10T20:09:31.886Z,8.38
2023-06-10T20:12:01.268Z,21.55
2023-06-10T20:14:30.766Z,9.80
2023-06-10T20:17:00.290Z,15.55
2023-06-10T20:21:54.833Z,8.70
2023-06-10T20:24:22.760Z,8.02
2023-06-10T20:26:50.419Z,8.32
2023-06-10T20:29:18.229Z,8.65
2023-06-10T20:31:46.839Z,9.93
2023-06-10T20:34:14.201Z,12.05
2023-06-10T20:36:41.767Z,10.18
2023-06-10T20:39:09.572Z,13.75
2023-06-10T20:41:37.360Z,15.15
2023-06-10T20:44:05.483Z,15.23
2023-06-10T20:46:33.463Z,12.60
2023-06-10T20:49:00.981Z,13.23
2023-06-10T20:51:28.660Z,13.18
2023-06-10T20:53:56.410Z,14.90
2023-06-10T20:56:23.868Z,20.02
2023-06-10T20:58:51.593Z,15.27
2023-06-10T21:01:19.019Z,14.65
2023-06-10T21:03:46.613Z,14.18
2023-06-10T21:06:16.126Z,10.43
2023-06-10T21:08:43.694Z,7.53
2023-06-10T21:11:11.107Z,7.47
2023-06-10T21:13:39.281Z,7.35
2023-06-10T21:16:06.883Z,6.63
2023-06-10T21:18:35.645Z,6.70
2023-06-10T21:21:03.125Z,6.25
2023-06-10T21:23:31.193Z,6.50
2023-06-10T21:26:00.895Z,6.00
2023-06-10T21:30:55.705Z,5.70
2023-06-10T21:33:24.140Z,5.43
2023-06-10T21:35:51.627Z,4.93
2023-06-10T21:38:19.796Z,5.22
2023-06-10T21:40:47.298Z,8.35
2023-06-10T21:43:14.599Z,5.00
2023-06-10T21:45:41.829Z,4.85
2023-06-10T21:48:09.373Z,5.15
2023-06-10T21:50:36.919Z,5.45
2023-06-10T21:53:04.238Z,5.25
2023-06-10T21:55:32.071Z,5.43
2023-06-10T21:57:59.578Z,5.85
2023-06-10T22:00:27.055Z,6.13
2023-06-10T22:02:54.593Z,6.10
2023-06-10T22:05:21.949Z,6.32
2023-06-10T22:07:50.928Z,6.88
2023-06-10T22:10:18.335Z,5.90
2023-06-10T22:12:46.094Z,6.80
2023-06-10T22:15:14.526Z,7.13
2023-06-10T22:17:42.228Z,8.38
2023-06-10T22:20:10.058Z,6.68
2023-06-10T22:22:37.834Z,7.43
2023-06-10T22:25:05.690Z,7.50
2023-06-10T22:27:33.218Z,6.18
2023-06-10T22:30:01.985Z,6.68
2023-06-10T22:32:32.532Z,8.02
2023-06-10T22:35:00.128Z,7.75
2023-06-10T22:37:27.380Z,7.22
2023-06-10T22:39:54.777Z,16.75
2023-06-10T22:42:22.139Z,7.35
2023-06-10T22:44:49.565Z,7.10
2023-06-10T22:47:16.937Z,7.30
2023-06-10T22:49:44.615Z,7.45
2023-06-10T22:52:11.972Z,6.97
2023-06-10T22:54:41.444Z,6.90
2023-06-10T22:57:08.796Z,5.82
2023-06-10T22:59:36.201Z,8.13
2023-06-10T23:02:03.897Z,5.63
2023-06-10T23:04:31.454Z,5.38
2023-06-10T23:06:58.837Z,5.25
2023-06-10T23:09:26.156Z,5.20
2023-06-10T23:11:53.423Z,5.72
2023-06-10T23:14:20.982Z,5.28
2023-06-10T23:16:48.431Z,5.68
2023-06-10T23:19:19.430Z,5.63
2023-06-10T23:21:54.608Z,5.13
2023-06-10T23:24:28.454Z,5.13
2023-06-10T23:27:00.873Z,5.85
2023-06-10T23:29:29.118Z,5.07
2023-06-10T23:31:56.789Z,5.88
2023-06-10T23:34:24.597Z,5.18
2023-06-10T23:36:53.829Z,4.95
2023-06-10T23:39:22.120Z,5.15
2023-06-10T23:41:49.492Z,5.25
2023-06-10T23:44:16.898Z,5.30
2023-06-10T23:46:44.289Z,6.25
2023-06-10T23:49:11.935Z,6.88
2023-06-10T23:51:39.860Z,7.22
2023-06-10T23:54:07.249Z,6.63
2023-06-10T23:56:34.745Z,6.00
2023-06-10T23:59:02.034Z,6.03
